Decoded Metar for LFBI (POITIERS in FRANCE) (IATA:PIS) | Meteo·Mobile Aviation Weather
aviador You're here:

LFBI Decoded Metar

POITIERS in FRANCE
Report Time2018-08-21 16:00:00
UTC Time2018-08-21 16:06:55
Flight Rules vfr VFR
Wind020° at 08 kt
W.Decomp.*RWY 03: 7.9 kt HW 1.3 kt LCW
W.Rank020° ranks 13
Current wind is above 020° avg. (6.3)
Visibility9999 m
Phenomena:N/A
Clouds:N/A
Expected CloudBase > 6,400 ft AGL from Temp-Dew spread
CeilingNone
Temp30°C (ISA +16)
Dew Point14°C (38% RH)
Heat Index29.5°C
AAT28.4°C
QNH1017 hPa
Density Alt2,283 ft
Elevation394 ft
Report Wrong Elevation
Raw Report
METAR LFBI 211600Z AUTO 02008KT 330V060 CAVOK 30/14 Q1017 NOSIG=

Extra information for LFBI:More info

Metar Taf Metar & Taf Last 4 Metars F.Rules Stats Wind Profile Meteogram Temp Stats Airport Information Weather charts Add Link Nearby VenuesMetar ALERT Operation Metar Decoded Social comments